sensor_id;sensor_type;location;lat;lon;timestamp;P1;durP1;ratioP1;P2;durP2;ratioP2
37891;SDS011;45797;47.466;9.486;2024-01-30T00:05:03;4.40;;;1.63;;
37891;SDS011;45797;47.466;9.486;2024-01-30T00:10:30;3.83;;;1.57;;
37891;SDS011;45797;47.466;9.486;2024-01-30T00:15:51;4.10;;;2.13;;
37891;SDS011;45797;47.466;9.486;2024-01-30T00:21:11;5.03;;;2.40;;
37891;SDS011;45797;47.466;9.486;2024-01-30T00:26:32;8.13;;;2.90;;
37891;SDS011;45797;47.466;9.486;2024-01-30T00:31:52;5.20;;;1.87;;
37891;SDS011;45797;47.466;9.486;2024-01-30T00:37:15;4.47;;;1.80;;
37891;SDS011;45797;47.466;9.486;2024-01-30T00:42:36;4.57;;;1.53;;
37891;SDS011;45797;47.466;9.486;2024-01-30T00:53:24;3.10;;;1.70;;
37891;SDS011;45797;47.466;9.486;2024-01-30T00:58:44;4.77;;;2.17;;
37891;SDS011;45797;47.466;9.486;2024-01-30T01:04:15;3.50;;;2.13;;
37891;SDS011;45797;47.466;9.486;2024-01-30T01:09:37;4.40;;;1.70;;
37891;SDS011;45797;47.466;9.486;2024-01-30T01:14:59;3.70;;;1.53;;
37891;SDS011;45797;47.466;9.486;2024-01-30T01:20:21;3.80;;;1.43;;
37891;SDS011;45797;47.466;9.486;2024-01-30T01:25:50;2.70;;;1.40;;
37891;SDS011;45797;47.466;9.486;2024-01-30T01:31:17;2.90;;;1.43;;
37891;SDS011;45797;47.466;9.486;2024-01-30T01:36:38;3.10;;;1.20;;
37891;SDS011;45797;47.466;9.486;2024-01-30T01:41:59;5.13;;;2.23;;
37891;SDS011;45797;47.466;9.486;2024-01-30T01:47:21;5.13;;;2.10;;
37891;SDS011;45797;47.466;9.486;2024-01-30T01:52:44;4.83;;;1.97;;
37891;SDS011;45797;47.466;9.486;2024-01-30T01:58:09;3.93;;;2.37;;
37891;SDS011;45797;47.466;9.486;2024-01-30T02:03:34;4.27;;;1.80;;
37891;SDS011;45797;47.466;9.486;2024-01-30T02:14:43;14.07;;;1.50;;
37891;SDS011;45797;47.466;9.486;2024-01-30T02:20:10;4.63;;;2.47;;
37891;SDS011;45797;47.466;9.486;2024-01-30T02:25:40;2.70;;;1.53;;
37891;SDS011;45797;47.466;9.486;2024-01-30T02:31:06;4.50;;;1.97;;
37891;SDS011;45797;47.466;9.486;2024-01-30T02:36:27;3.77;;;1.90;;
37891;SDS011;45797;47.466;9.486;2024-01-30T02:41:48;4.37;;;2.00;;
37891;SDS011;45797;47.466;9.486;2024-01-30T02:47:10;3.57;;;1.37;;
37891;SDS011;45797;47.466;9.486;2024-01-30T02:58:05;4.57;;;1.97;;
37891;SDS011;45797;47.466;9.486;2024-01-30T03:03:26;3.17;;;1.97;;
37891;SDS011;45797;47.466;9.486;2024-01-30T03:08:49;4.50;;;2.30;;
37891;SDS011;45797;47.466;9.486;2024-01-30T03:14:10;4.17;;;1.67;;
37891;SDS011;45797;47.466;9.486;2024-01-30T03:19:38;3.63;;;1.63;;
37891;SDS011;45797;47.466;9.486;2024-01-30T03:24:59;2.77;;;1.90;;
37891;SDS011;45797;47.466;9.486;2024-01-30T03:30:20;6.33;;;2.43;;
37891;SDS011;45797;47.466;9.486;2024-01-30T03:46:35;4.57;;;1.97;;
37891;SDS011;45797;47.466;9.486;2024-01-30T03:51:57;3.00;;;1.53;;
37891;SDS011;45797;47.466;9.486;2024-01-30T03:57:24;4.13;;;1.53;;
37891;SDS011;45797;47.466;9.486;2024-01-30T04:02:46;9.70;;;1.80;;
37891;SDS011;45797;47.466;9.486;2024-01-30T04:08:09;2.40;;;1.63;;
37891;SDS011;45797;47.466;9.486;2024-01-30T04:13:47;5.57;;;2.57;;
37891;SDS011;45797;47.466;9.486;2024-01-30T04:24:32;5.67;;;1.67;;
37891;SDS011;45797;47.466;9.486;2024-01-30T04:29:53;4.37;;;1.47;;
37891;SDS011;45797;47.466;9.486;2024-01-30T04:35:24;4.63;;;2.20;;
37891;SDS011;45797;47.466;9.486;2024-01-30T04:40:52;3.60;;;1.50;;
37891;SDS011;45797;47.466;9.486;2024-01-30T04:46:19;4.03;;;1.90;;
37891;SDS011;45797;47.466;9.486;2024-01-30T04:57:20;4.03;;;1.90;;
37891;SDS011;45797;47.466;9.486;2024-01-30T05:02:41;3.47;;;1.67;;
37891;SDS011;45797;47.466;9.486;2024-01-30T05:08:15;4.00;;;1.83;;
37891;SDS011;45797;47.466;9.486;2024-01-30T05:13:41;5.27;;;2.33;;
37891;SDS011;45797;47.466;9.486;2024-01-30T05:19:03;6.47;;;2.67;;
37891;SDS011;45797;47.466;9.486;2024-01-30T05:24:25;2.20;;;1.07;;
37891;SDS011;45797;47.466;9.486;2024-01-30T05:29:48;6.63;;;1.83;;
37891;SDS011;45797;47.466;9.486;2024-01-30T05:35:08;3.13;;;1.70;;
37891;SDS011;45797;47.466;9.486;2024-01-30T05:40:30;3.93;;;1.50;;
37891;SDS011;45797;47.466;9.486;2024-01-30T05:46:08;4.43;;;2.13;;
37891;SDS011;45797;47.466;9.486;2024-01-30T05:51:43;3.67;;;1.57;;
37891;SDS011;45797;47.466;9.486;2024-01-30T05:57:03;3.97;;;2.10;;
37891;SDS011;45797;47.466;9.486;2024-01-30T06:02:26;3.10;;;1.50;;
37891;SDS011;45797;47.466;9.486;2024-01-30T06:07:55;3.93;;;1.50;;
37891;SDS011;45797;47.466;9.486;2024-01-30T06:18:41;4.00;;;2.13;;
37891;SDS011;45797;47.466;9.486;2024-01-30T06:24:03;3.90;;;1.93;;
37891;SDS011;45797;47.466;9.486;2024-01-30T06:40:23;3.00;;;1.73;;
37891;SDS011;45797;47.466;9.486;2024-01-30T06:51:14;5.57;;;1.97;;
37891;SDS011;45797;47.466;9.486;2024-01-30T06:56:41;4.00;;;1.67;;
37891;SDS011;45797;47.466;9.486;2024-01-30T07:02:03;3.87;;;1.70;;
37891;SDS011;45797;47.466;9.486;2024-01-30T07:07:35;3.10;;;1.30;;
37891;SDS011;45797;47.466;9.486;2024-01-30T07:12:56;4.20;;;1.70;;
37891;SDS011;45797;47.466;9.486;2024-01-30T07:18:18;3.50;;;1.30;;
37891;SDS011;45797;47.466;9.486;2024-01-30T07:23:54;3.13;;;1.27;;
37891;SDS011;45797;47.466;9.486;2024-01-30T07:29:25;3.80;;;1.80;;
37891;SDS011;45797;47.466;9.486;2024-01-30T07:34:47;3.50;;;1.93;;
37891;SDS011;45797;47.466;9.486;2024-01-30T07:40:08;5.17;;;2.20;;
37891;SDS011;45797;47.466;9.486;2024-01-30T07:50:54;3.97;;;2.13;;
37891;SDS011;45797;47.466;9.486;2024-01-30T07:56:22;5.00;;;2.10;;
37891;SDS011;45797;47.466;9.486;2024-01-30T08:01:45;22.03;;;2.47;;
37891;SDS011;45797;47.466;9.486;2024-01-30T08:07:06;4.53;;;2.20;;
37891;SDS011;45797;47.466;9.486;2024-01-30T08:12:35;3.10;;;1.53;;
37891;SDS011;45797;47.466;9.486;2024-01-30T08:23:45;4.67;;;2.30;;
37891;SDS011;45797;47.466;9.486;2024-01-30T08:34:28;5.73;;;2.30;;
37891;SDS011;45797;47.466;9.486;2024-01-30T08:45:31;3.87;;;1.60;;
37891;SDS011;45797;47.466;9.486;2024-01-30T08:56:37;6.20;;;2.53;;
37891;SDS011;45797;47.466;9.486;2024-01-30T09:01:58;4.10;;;1.90;;
37891;SDS011;45797;47.466;9.486;2024-01-30T09:07:21;5.27;;;2.60;;
37891;SDS011;45797;47.466;9.486;2024-01-30T09:12:51;3.23;;;1.57;;
37891;SDS011;45797;47.466;9.486;2024-01-30T09:18:20;6.80;;;2.37;;
37891;SDS011;45797;47.466;9.486;2024-01-30T09:23:47;5.53;;;2.33;;
37891;SDS011;45797;47.466;9.486;2024-01-30T09:29:08;4.90;;;2.20;;
37891;SDS011;45797;47.466;9.486;2024-01-30T09:34:29;6.23;;;2.33;;
37891;SDS011;45797;47.466;9.486;2024-01-30T09:39:50;5.17;;;2.67;;
37891;SDS011;45797;47.466;9.486;2024-01-30T09:45:11;4.77;;;2.27;;
37891;SDS011;45797;47.466;9.486;2024-01-30T09:50:36;5.23;;;2.50;;
37891;SDS011;45797;47.466;9.486;2024-01-30T09:55:58;6.10;;;2.70;;
37891;SDS011;45797;47.466;9.486;2024-01-30T10:01:19;5.78;;;2.88;;
37891;SDS011;45797;47.466;9.486;2024-01-30T10:12:29;6.10;;;2.50;;
37891;SDS011;45797;47.466;9.486;2024-01-30T10:17:50;15.10;;;3.20;;
37891;SDS011;45797;47.466;9.486;2024-01-30T10:23:16;4.72;;;2.00;;
37891;SDS011;45797;47.466;9.486;2024-01-30T10:34:31;5.03;;;2.72;;
37891;SDS011;45797;47.466;9.486;2024-01-30T10:39:53;5.45;;;2.38;;
37891;SDS011;45797;47.466;9.486;2024-01-30T10:45:19;4.90;;;2.63;;
37891;SDS011;45797;47.466;9.486;2024-01-30T10:50:54;4.45;;;2.50;;
37891;SDS011;45797;47.466;9.486;2024-01-30T10:56:25;6.63;;;2.85;;
37891;SDS011;45797;47.466;9.486;2024-01-30T11:01:47;6.07;;;2.95;;
37891;SDS011;45797;47.466;9.486;2024-01-30T11:18:22;7.25;;;3.00;;
37891;SDS011;45797;47.466;9.486;2024-01-30T11:23:52;11.18;;;3.65;;
37891;SDS011;45797;47.466;9.486;2024-01-30T11:29:15;6.05;;;2.90;;
37891;SDS011;45797;47.466;9.486;2024-01-30T11:40:03;8.45;;;3.35;;
37891;SDS011;45797;47.466;9.486;2024-01-30T11:45:25;6.15;;;3.00;;
37891;SDS011;45797;47.466;9.486;2024-01-30T11:50:49;8.15;;;3.88;;
37891;SDS011;45797;47.466;9.486;2024-01-30T11:56:12;6.85;;;3.28;;
37891;SDS011;45797;47.466;9.486;2024-01-30T12:07:18;7.28;;;3.22;;
37891;SDS011;45797;47.466;9.486;2024-01-30T12:12:39;8.65;;;3.88;;
37891;SDS011;45797;47.466;9.486;2024-01-30T12:23:29;11.65;;;3.95;;
37891;SDS011;45797;47.466;9.486;2024-01-30T12:28:51;8.25;;;3.65;;
37891;SDS011;45797;47.466;9.486;2024-01-30T12:34:26;8.27;;;3.53;;
37891;SDS011;45797;47.466;9.486;2024-01-30T12:39:47;9.73;;;4.25;;
37891;SDS011;45797;47.466;9.486;2024-01-30T12:45:08;8.93;;;4.35;;
37891;SDS011;45797;47.466;9.486;2024-01-30T12:50:39;10.75;;;3.95;;
37891;SDS011;45797;47.466;9.486;2024-01-30T12:56:07;9.00;;;3.80;;
37891;SDS011;45797;47.466;9.486;2024-01-30T13:01:37;8.52;;;4.47;;
37891;SDS011;45797;47.466;9.486;2024-01-30T13:07:01;13.52;;;4.70;;
37891;SDS011;45797;47.466;9.486;2024-01-30T13:12:28;10.75;;;5.30;;
37891;SDS011;45797;47.466;9.486;2024-01-30T13:18:03;10.07;;;4.35;;
37891;SDS011;45797;47.466;9.486;2024-01-30T13:23:27;10.63;;;4.85;;
37891;SDS011;45797;47.466;9.486;2024-01-30T13:28:58;9.70;;;4.03;;
37891;SDS011;45797;47.466;9.486;2024-01-30T13:34:27;7.50;;;4.13;;
37891;SDS011;45797;47.466;9.486;2024-01-30T13:39:49;7.85;;;3.78;;
37891;SDS011;45797;47.466;9.486;2024-01-30T13:45:09;8.93;;;3.97;;
37891;SDS011;45797;47.466;9.486;2024-01-30T13:50:30;9.88;;;4.10;;
37891;SDS011;45797;47.466;9.486;2024-01-30T13:55:51;11.60;;;4.35;;
37891;SDS011;45797;47.466;9.486;2024-01-30T14:01:22;10.85;;;4.60;;
37891;SDS011;45797;47.466;9.486;2024-01-30T14:06:43;9.77;;;4.20;;
37891;SDS011;45797;47.466;9.486;2024-01-30T14:12:06;9.77;;;4.45;;
37891;SDS011;45797;47.466;9.486;2024-01-30T14:17:28;10.32;;;3.90;;
37891;SDS011;45797;47.466;9.486;2024-01-30T14:22:51;9.35;;;3.83;;
37891;SDS011;45797;47.466;9.486;2024-01-30T14:28:15;10.68;;;4.15;;
37891;SDS011;45797;47.466;9.486;2024-01-30T14:33:37;9.80;;;4.57;;
37891;SDS011;45797;47.466;9.486;2024-01-30T14:38:58;25.60;;;4.40;;
37891;SDS011;45797;47.466;9.486;2024-01-30T14:44:21;9.52;;;3.97;;
37891;SDS011;45797;47.466;9.486;2024-01-30T14:49:42;7.82;;;3.65;;
37891;SDS011;45797;47.466;9.486;2024-01-30T14:55:04;7.18;;;3.63;;
37891;SDS011;45797;47.466;9.486;2024-01-30T15:00:26;8.07;;;3.88;;
37891;SDS011;45797;47.466;9.486;2024-01-30T15:05:46;9.27;;;3.92;;
37891;SDS011;45797;47.466;9.486;2024-01-30T15:11:06;8.48;;;3.90;;
37891;SDS011;45797;47.466;9.486;2024-01-30T15:16:28;9.48;;;4.03;;
37891;SDS011;45797;47.466;9.486;2024-01-30T15:21:50;8.75;;;4.03;;
37891;SDS011;45797;47.466;9.486;2024-01-30T15:27:19;7.88;;;3.85;;
37891;SDS011;45797;47.466;9.486;2024-01-30T15:32:51;7.93;;;3.72;;
37891;SDS011;45797;47.466;9.486;2024-01-30T15:43:56;10.18;;;4.63;;
37891;SDS011;45797;47.466;9.486;2024-01-30T15:49:25;20.17;;;8.93;;
37891;SDS011;45797;47.466;9.486;2024-01-30T15:54:48;11.02;;;5.28;;
37891;SDS011;45797;47.466;9.486;2024-01-30T16:05:34;11.25;;;5.00;;
37891;SDS011;45797;47.466;9.486;2024-01-30T16:16:19;6.63;;;2.90;;
37891;SDS011;45797;47.466;9.486;2024-01-30T16:21:48;5.68;;;2.55;;
37891;SDS011;45797;47.466;9.486;2024-01-30T16:27:17;7.00;;;3.35;;
37891;SDS011;45797;47.466;9.486;2024-01-30T16:32:37;8.45;;;3.35;;
37891;SDS011;45797;47.466;9.486;2024-01-30T16:38:03;5.82;;;2.85;;
37891;SDS011;45797;47.466;9.486;2024-01-30T16:43:34;5.75;;;2.90;;
37891;SDS011;45797;47.466;9.486;2024-01-30T17:06:17;12.45;;;6.38;;
37891;SDS011;45797;47.466;9.486;2024-01-30T17:17:26;14.93;;;6.13;;
37891;SDS011;45797;47.466;9.486;2024-01-30T17:22:49;9.55;;;5.15;;
37891;SDS011;45797;47.466;9.486;2024-01-30T17:33:46;9.35;;;4.03;;
37891;SDS011;45797;47.466;9.486;2024-01-30T17:39:13;11.05;;;4.55;;
37891;SDS011;45797;47.466;9.486;2024-01-30T17:44:34;11.07;;;4.45;;
37891;SDS011;45797;47.466;9.486;2024-01-30T17:50:00;21.02;;;8.07;;
37891;SDS011;45797;47.466;9.486;2024-01-30T17:55:23;14.27;;;6.28;;
37891;SDS011;45797;47.466;9.486;2024-01-30T18:00:46;10.02;;;4.72;;
37891;SDS011;45797;47.466;9.486;2024-01-30T18:11:47;11.40;;;5.28;;
37891;SDS011;45797;47.466;9.486;2024-01-30T18:17:09;9.90;;;4.43;;
37891;SDS011;45797;47.466;9.486;2024-01-30T18:22:30;9.25;;;3.90;;
37891;SDS011;45797;47.466;9.486;2024-01-30T18:27:53;14.32;;;6.38;;
37891;SDS011;45797;47.466;9.486;2024-01-30T18:33:14;12.15;;;5.13;;
37891;SDS011;45797;47.466;9.486;2024-01-30T18:43:59;9.40;;;4.35;;
37891;SDS011;45797;47.466;9.486;2024-01-30T18:54:45;9.35;;;4.05;;
37891;SDS011;45797;47.466;9.486;2024-01-30T19:00:05;9.02;;;4.45;;
37891;SDS011;45797;47.466;9.486;2024-01-30T19:05:27;10.35;;;4.75;;
37891;SDS011;45797;47.466;9.486;2024-01-30T19:10:56;8.77;;;4.15;;
37891;SDS011;45797;47.466;9.486;2024-01-30T19:16:18;10.85;;;4.75;;
37891;SDS011;45797;47.466;9.486;2024-01-30T19:21:46;8.27;;;3.55;;
37891;SDS011;45797;47.466;9.486;2024-01-30T19:27:09;9.20;;;3.40;;
37891;SDS011;45797;47.466;9.486;2024-01-30T19:32:42;8.18;;;3.03;;
37891;SDS011;45797;47.466;9.486;2024-01-30T19:38:02;6.32;;;2.30;;
37891;SDS011;45797;47.466;9.486;2024-01-30T19:43:23;6.15;;;2.60;;
37891;SDS011;45797;47.466;9.486;2024-01-30T19:48:52;7.38;;;3.47;;
37891;SDS011;45797;47.466;9.486;2024-01-30T19:54:14;7.50;;;3.33;;
37891;SDS011;45797;47.466;9.486;2024-01-30T19:59:37;9.65;;;3.90;;
37891;SDS011;45797;47.466;9.486;2024-01-30T20:05:08;8.82;;;4.00;;
37891;SDS011;45797;47.466;9.486;2024-01-30T20:10:34;11.80;;;4.57;;
37891;SDS011;45797;47.466;9.486;2024-01-30T20:21:20;9.38;;;4.05;;
37891;SDS011;45797;47.466;9.486;2024-01-30T20:26:46;8.50;;;4.25;;
37891;SDS011;45797;47.466;9.486;2024-01-30T20:32:18;10.57;;;4.53;;
37891;SDS011;45797;47.466;9.486;2024-01-30T20:43:29;10.75;;;4.70;;
37891;SDS011;45797;47.466;9.486;2024-01-30T20:48:49;12.32;;;4.78;;
37891;SDS011;45797;47.466;9.486;2024-01-30T20:54:12;10.90;;;4.10;;
37891;SDS011;45797;47.466;9.486;2024-01-30T21:05:13;11.45;;;5.22;;
37891;SDS011;45797;47.466;9.486;2024-01-30T21:10:34;9.45;;;4.03;;
37891;SDS011;45797;47.466;9.486;2024-01-30T21:15:57;8.68;;;4.22;;
37891;SDS011;45797;47.466;9.486;2024-01-30T21:26:44;7.90;;;3.80;;
37891;SDS011;45797;47.466;9.486;2024-01-30T21:32:04;8.18;;;3.97;;
37891;SDS011;45797;47.466;9.486;2024-01-30T21:37:26;7.07;;;3.67;;
37891;SDS011;45797;47.466;9.486;2024-01-30T21:42:58;8.65;;;4.10;;
37891;SDS011;45797;47.466;9.486;2024-01-30T21:48:21;8.68;;;3.65;;
37891;SDS011;45797;47.466;9.486;2024-01-30T21:53:42;6.72;;;3.58;;
37891;SDS011;45797;47.466;9.486;2024-01-30T21:59:18;8.68;;;3.20;;
37891;SDS011;45797;47.466;9.486;2024-01-30T22:10:17;9.63;;;3.22;;
37891;SDS011;45797;47.466;9.486;2024-01-30T22:21:04;9.77;;;4.07;;
37891;SDS011;45797;47.466;9.486;2024-01-30T22:26:28;6.90;;;3.53;;
37891;SDS011;45797;47.466;9.486;2024-01-30T22:31:50;9.70;;;3.65;;
37891;SDS011;45797;47.466;9.486;2024-01-30T22:37:23;8.60;;;4.10;;
37891;SDS011;45797;47.466;9.486;2024-01-30T22:53:37;9.43;;;3.90;;
37891;SDS011;45797;47.466;9.486;2024-01-30T22:58:58;10.45;;;4.70;;
37891;SDS011;45797;47.466;9.486;2024-01-30T23:04:21;7.95;;;3.92;;
37891;SDS011;45797;47.466;9.486;2024-01-30T23:09:43;8.65;;;4.40;;
37891;SDS011;45797;47.466;9.486;2024-01-30T23:15:05;9.95;;;4.32;;
37891;SDS011;45797;47.466;9.486;2024-01-30T23:20:33;9.18;;;4.25;;
37891;SDS011;45797;47.466;9.486;2024-01-30T23:25:54;15.15;;;5.47;;
37891;SDS011;45797;47.466;9.486;2024-01-30T23:48:18;11.15;;;4.25;;
37891;SDS011;45797;47.466;9.486;2024-01-30T23:53:39;7.43;;;3.78;;
37891;SDS011;45797;47.466;9.486;2024-01-30T23:59:06;6.35;;;3.05;;
